Wylde Swan — PIWS — position and weather

sailwx.info

Track history (hours):
 
Tides and Currents Weather Stations Pressure Air Temp Water Temp Dewpoint Dewpoint Depression Visibility Wind Speed Wind Dir Waves Ship Positions

Wylde Swan

Last reported at 2018-Nov-03 12:42 UTC. Time now 2018-Dec-10 23:47 UTC.
Position N 37°17' W 010°32'.
Warning: this ship's position is 37 days out of date.

Length 45 m; draft 3.4 m.

Type: Sailing vessel. MMSI: 244074000.

Date/timePositionNaut miles runAvg speedWind from/ knotsBaromVisibWave heightAir tempDewpointWater temp
2018-Nov-03 12:42N 37°17' W 010°32'2 8.5
2018-Nov-03 12:30N 37°19' W 010°31'6 7.4
2018-Nov-03 11:44N 37°23' W 010°26'5 7.5
2018-Nov-03 11:06N 37°27' W 010°22'0 7.2
2018-Nov-03 11:03N 37°27' W 010°22'2 7.6
2018-Nov-03 10:45N 37°29' W 010°20'8 7.6
2018-Nov-03 09:41N 37°35' W 010°14'21 7.2
2018-Nov-03 06:45N 37°52' W 009°58'11 6.3
2018-Nov-03 05:04N 38°01' W 009°52'1 6.0
2018-Nov-03 04:50N 38°03' W 009°51'3 6.7
2018-Nov-03 04:20N 38°05' W 009°49'2 6.4
2018-Nov-03 03:59N 38°07' W 009°48'4 7.3
2018-Nov-03 03:26N 38°11' W 009°45'3 6.8
2018-Nov-03 03:03N 38°13' W 009°44'0 7.5
2018-Nov-03 03:00N 38°14' W 009°43'4 7.1
2018-Nov-03 02:30N 38°17' W 009°42'3 6.8
2018-Nov-03 02:03N 38°20' W 009°40'0 7.4
2018-Nov-03 02:00N 38°20' W 009°40'3 6.4
2018-Nov-03 01:30N 38°23' W 009°38'3 6.1
2018-Nov-03 01:03N 38°25' W 009°36'0 6.8
2018-Nov-03 01:00N 38°25' W 009°36'3 6.3
2018-Nov-03 00:30N 38°28' W 009°34'3 6.2
2018-Nov-03 00:03N 38°30' W 009°32'0 6.3
2018-Nov-03 00:00N 38°31' W 009°32'3 6.0
2018-Nov-02 23:30N 38°33' W 009°30'3 6.6
2018-Nov-02 23:03N 38°36' W 009°28'0 6.6
2018-Nov-02 23:00N 38°36' W 009°28'3 5.4
2018-Nov-02 22:30N 38°38' W 009°26'1 2.8
2018-Nov-02 22:03N 38°40' W 009°25'0 2.2
2018-Nov-02 22:00N 38°40' W 009°25'1 2.5
2018-Nov-02 21:30N 38°41' W 009°25'1 1.9
2018-Nov-02 21:03N 38°42' W 009°25'0 0.3
2018-Nov-02 20:57N 38°42' W 009°25'0 0.1
2018-Nov-02 20:30N 38°42' W 009°25'0 0.0
2018-Nov-02 20:03N 38°42' W 009°25'0 0.1
2018-Nov-02 20:00N 38°42' W 009°25'0 0.0
2018-Nov-02 19:30N 38°42' W 009°25'0 0.0
2018-Nov-02 19:03N 38°42' W 009°25'0 0.1
2018-Nov-02 19:00N 38°42' W 009°25'0 0.1
2018-Nov-02 18:30N 38°42' W 009°25'0 0.1
2018-Nov-02 18:03N 38°42' W 009°25'0 0.1
2018-Nov-02 18:00N 38°42' W 009°25'0 0.0
2018-Nov-02 17:27N 38°42' W 009°25'0 0.0
2018-Nov-02 17:03N 38°42' W 009°25'0 0.0
2018-Nov-02 16:57N 38°42' W 009°25'0 0.0
2018-Nov-02 16:30N 38°42' W 009°25'0 0.0
2018-Nov-02 16:03N 38°42' W 009°25'0 0.1
2018-Nov-02 16:00N 38°42' W 009°25'0 0.0
2018-Nov-02 15:30N 38°42' W 009°25'0 0.0
2018-Nov-02 15:03N 38°42' W 009°25'0 0.1
2018-Nov-02 15:00N 38°42' W 009°25'0 0.0
2018-Nov-02 14:03N 38°42' W 009°25'0 0.1
2018-Nov-02 14:00N 38°42' W 009°25'0 0.0
2018-Nov-02 13:30N 38°42' W 009°25'0 0.0
2018-Nov-02 13:03N 38°42' W 009°25'0 0.0
2018-Nov-02 12:57N 38°42' W 009°25'0 0.0
2018-Nov-02 12:30N 38°42' W 009°25'0 0.0
2018-Nov-02 12:03N 38°42' W 009°25'0 0.0
2018-Nov-02 11:57N 38°42' W 009°25'0 0.0
2018-Nov-02 11:18N 38°42' W 009°25'0 0.0
2018-Nov-02 11:03N 38°42' W 009°25'0 0.1
2018-Nov-02 11:00N 38°42' W 009°25'0 0.0
2018-Nov-02 10:30N 38°42' W 009°25'0 0.0
2018-Nov-02 09:57N 38°42' W 009°25'0 0.1
2018-Nov-02 09:30N 38°42' W 009°25'0 0.0
2018-Nov-02 09:03N 38°42' W 009°25'0 0.0
2018-Nov-02 09:00N 38°42' W 009°25'0 0.0
2018-Nov-02 08:30N 38°42' W 009°25'0 0.0
2018-Nov-02 08:03N 38°42' W 009°25'0 0.0
2018-Nov-02 07:51N 38°42' W 009°25'0 0.1
2018-Nov-02 07:30N 38°42' W 009°25'0 0.0
2018-Nov-02 07:03N 38°42' W 009°25'0 0.0
2018-Nov-02 07:00N 38°42' W 009°25'0 0.0
2018-Nov-02 06:30N 38°42' W 009°25'0 0.0
2018-Nov-02 06:03N 38°42' W 009°25'0 0.0
2018-Nov-02 05:57N 38°42' W 009°25'0 0.0
2018-Nov-02 05:27N 38°42' W 009°25'0 0.0
2018-Nov-02 05:03N 38°42' W 009°25'0 0.0
2018-Nov-02 04:54N 38°42' W 009°25'0 0.0
2018-Nov-02 04:30N 38°42' W 009°25'0 0.0
2018-Nov-02 04:03N 38°42' W 009°25'0 0.1
2018-Nov-02 03:57N 38°42' W 009°25'0 0.0
2018-Nov-02 03:30N 38°42' W 009°25'0 0.0
2018-Nov-02 03:03N 38°42' W 009°25'0 0.0
2018-Nov-02 02:57N 38°42' W 009°25'0 0.0
2018-Nov-02 02:24N 38°42' W 009°25'0 0.0
2018-Nov-02 02:03N 38°42' W 009°25'0 0.0
2018-Nov-02 01:57N 38°42' W 009°25'0 0.0
2018-Nov-02 01:30N 38°42' W 009°25'0 0.0
2018-Nov-02 00:51N 38°42' W 009°25'0 0.0
2018-Nov-02 00:33N 38°42' W 009°25'0 0.0
2018-Nov-02 00:15N 38°42' W 009°25'0 0.0
2018-Nov-02 00:03N 38°42' W 009°25'0 0.0
2018-Nov-02 00:00N 38°42' W 009°25'0 0.0
2018-Nov-01 23:30N 38°42' W 009°25'0 0.0
2018-Nov-01 23:03N 38°42' W 009°25'0 0.1
2018-Nov-01 22:57N 38°42' W 009°25'0 0.0
2018-Nov-01 22:30N 38°42' W 009°25'0 0.0
2018-Nov-01 22:03N 38°42' W 009°25'0 0.0
2018-Nov-01 22:00N 38°42' W 009°25'0 0.0
2018-Nov-01 21:30N 38°42' W 009°25'0 0.0
2018-Nov-01 21:00N 38°42' W 009°25'0 0.0
2018-Nov-01 20:27N 38°42' W 009°25'0 0.0
2018-Nov-01 19:57N 38°42' W 009°25'0 0.0
2018-Nov-01 19:24N 38°42' W 009°25'0 0.0
2018-Nov-01 18:57N 38°42' W 009°25'0 0.0
2018-Nov-01 18:24N 38°42' W 009°25'0 0.0
2018-Nov-01 18:03N 38°42' W 009°25'0 0.1
2018-Nov-01 18:00N 38°42' W 009°25'0 0.0
2018-Nov-01 17:30N 38°42' W 009°25'0 0.0
2018-Nov-01 17:00N 38°42' W 009°25'0 0.0
2018-Nov-01 16:27N 38°42' W 009°25'0 0.0
2018-Nov-01 16:03N 38°42' W 009°25'0 0.1
2018-Nov-01 16:00N 38°42' W 009°25'0 0.0
2018-Nov-01 15:27N 38°42' W 009°25'0 0.0
2018-Nov-01 15:00N 38°42' W 009°25'0 0.0
2018-Nov-01 14:27N 38°42' W 009°25'0 0.0
2018-Nov-01 14:00N 38°42' W 009°25'0 0.1
2018-Nov-01 13:30N 38°42' W 009°25'0 0.0
2018-Nov-01 13:03N 38°42' W 009°25'0 0.2
2018-Nov-01 13:00N 38°42' W 009°25'0 0.0
2018-Nov-01 12:30N 38°42' W 009°25'0 0.0
2018-Nov-01 12:03N 38°42' W 009°25'0 0.0
2018-Nov-01 12:00N 38°42' W 009°25'0 0.0
2018-Nov-01 11:30N 38°42' W 009°25'0 0.0
2018-Nov-01 11:04N 38°42' W 009°25'0 0.0
2018-Nov-01 11:01N 38°42' W 009°25'0 0.0
2018-Nov-01 10:31N 38°42' W 009°25'0 0.0
2018-Nov-01 10:04N 38°42' W 009°25'0 0.1
2018-Nov-01 10:00N 38°42' W 009°25'0 0.1
2018-Nov-01 09:30N 38°42' W 009°25'0 0.0
2018-Nov-01 09:03N 38°42' W 009°25'0 0.1
2018-Nov-01 09:01N 38°42' W 009°25'0 0.0
2018-Nov-01 08:31N 38°42' W 009°25'0 0.0
2018-Nov-01 08:03N 38°42' W 009°25'0 0.0
2018-Nov-01 08:01N 38°42' W 009°25'0 0.0
2018-Nov-01 07:30N 38°42' W 009°25'0 0.1
2018-Nov-01 07:03N 38°42' W 009°25'0 1.3
2018-Nov-01 07:01N 38°42' W 009°25'1 1.2
2018-Nov-01 06:30N 38°41' W 009°25'2 5.5
2018-Nov-01 06:04N 38°39' W 009°27'0 7.3
2018-Nov-01 06:01N 38°39' W 009°27'3 6.8
2018-Nov-01 05:30N 38°39' W 009°31'3 6.6
2018-Nov-01 05:04N 38°39' W 009°35'0 6.5
2018-Nov-01 05:01N 38°39' W 009°36'3 6.8
2018-Nov-01 04:30N 38°39' W 009°40'3 6.0
2018-Nov-01 04:03N 38°41' W 009°43'0 7.3
2018-Nov-01 04:01N 38°41' W 009°43'3 6.9
2018-Nov-01 03:30N 38°44' W 009°43'3 6.5
2018-Nov-01 03:04N 38°47' W 009°43'0 6.5
2018-Nov-01 03:00N 38°48' W 009°43'3 6.6
2018-Nov-01 02:31N 38°51' W 009°43'3 6.4
2018-Nov-01 02:03N 38°54' W 009°42'0 6.4
2018-Nov-01 02:01N 38°54' W 009°42'3 6.6
2018-Nov-01 01:30N 38°57' W 009°41'3 6.5
2018-Nov-01 01:03N 39°00' W 009°40'0 6.6
2018-Nov-01 01:01N 39°00' W 009°40'3 6.5
2018-Nov-01 00:30N 39°03' W 009°38'3 6.3
2018-Nov-01 00:04N 39°06' W 009°37'0 6.2
2018-Nov-01 00:01N 39°06' W 009°36'3 6.2
2018-Oct-31 23:31N 39°09' W 009°35'3 6.3
2018-Oct-31 23:03N 39°12' W 009°34'0 6.5
2018-Oct-31 23:00N 39°12' W 009°34'3 6.1
2018-Oct-31 22:30N 39°15' W 009°32'3 6.0
2018-Oct-31 22:03N 39°18' W 009°31'0 5.7
2018-Oct-31 22:01N 39°18' W 009°31'3 5.7
2018-Oct-31 21:31N 39°20' W 009°30'2 5.3
2018-Oct-31 21:03N 39°23' W 009°28'0 5.7
2018-Oct-31 21:00N 39°23' W 009°28'2 5.0
2018-Oct-31 20:31N 39°25' W 009°27'3 5.9
2018-Oct-31 20:03N 39°28' W 009°26'0 5.8
2018-Oct-31 20:00N 39°28' W 009°26'3 5.3
2018-Oct-31 19:27N 39°31' W 009°25'150 6.0
2018-Oct-30 18:20N 42°00' W 009°02'2 6.0
2018-Oct-30 18:04N 42°02' W 009°02'0 5.9
2018-Oct-30 18:01N 42°02' W 009°02'3 6.1
2018-Oct-30 17:30N 42°05' W 009°02'3 6.0
2018-Oct-30 17:04N 42°08' W 009°02'0 6.1
2018-Oct-30 17:01N 42°08' W 009°02'3 6.2
2018-Oct-30 16:30N 42°11' W 009°03'3 6.3
2018-Oct-30 16:03N 42°14' W 009°03'0 6.0
2018-Oct-30 16:00N 42°14' W 009°03'2 4.0
2018-Oct-30 15:31N 42°16' W 009°02'2 5.2
2018-Oct-30 15:03N 42°17' W 008°59'0 5.2
2018-Oct-30 15:00N 42°18' W 008°59'4 4.7
2018-Oct-30 14:03N 42°20' W 008°54'4 5.1
2018-Oct-30 13:16N 42°22' W 008°49'3 1.6
2018-Oct-30 11:32N 42°22' W 008°46'0 3.9
2018-Oct-30 11:30N 42°22' W 008°46'2 3.2
2018-Oct-30 10:51N 42°24' W 008°48'0 0.0
2018-Oct-30 04:58N 42°24' W 008°48'0 0.0
2018-Oct-28 02:34N 42°24' W 008°48'5 0.1
2018-Oct-26 16:08N 42°20' W 008°52'0 5.8
2018-Oct-26 16:03N 42°20' W 008°53'0 5.6
2018-Oct-26 16:00N 42°20' W 008°53'3 6.8
2018-Oct-26 15:30N 42°17' W 008°56'3 7.0
2018-Oct-26 15:03N 42°14' W 008°56'0 7.1
2018-Oct-26 15:00N 42°14' W 008°56'6 6.4
2018-Oct-26 14:04N 42°08' W 008°53'0 6.6
2018-Oct-26 14:00N 42°08' W 008°52'2 3.5
2018-Oct-26 13:30N 42°08' W 008°50'0 0.0
2018-Oct-26 13:01N 42°08' W 008°50'0 0.0
2018-Oct-26 12:58N 42°08' W 008°50'0 0.0
2018-Oct-26 12:28N 42°08' W 008°50'0 0.1
2018-Oct-26 12:01N 42°08' W 008°50'0 0.1
2018-Oct-26 11:58N 42°08' W 008°50'0 0.0
2018-Oct-26 11:28N 42°08' W 008°50'0 0.0
2018-Oct-26 11:01N 42°08' W 008°50'0 0.1
2018-Oct-26 10:55N 42°08' W 008°50'0 0.0
2018-Oct-26 10:28N 42°08' W 008°50'0 0.1
2018-Oct-26 10:01N 42°08' W 008°50'0 0.0
2018-Oct-26 09:58N 42°08' W 008°50'0 0.0
2018-Oct-26 09:28N 42°08' W 008°50'0 0.1
2018-Oct-26 09:01N 42°08' W 008°50'0 0.0
2018-Oct-26 08:58N 42°08' W 008°50'0 0.0
2018-Oct-26 08:28N 42°08' W 008°50'0 0.0
2018-Oct-26 08:01N 42°08' W 008°50'0 0.0
2018-Oct-26 07:58N 42°08' W 008°50'0 0.0
2018-Oct-26 07:28N 42°08' W 008°50'0 0.0
2018-Oct-26 07:01N 42°08' W 008°50'0 0.0
2018-Oct-26 06:58N 42°08' W 008°50'0 0.0
2018-Oct-26 06:28N 42°08' W 008°50'0 0.0
2018-Oct-26 06:01N 42°08' W 008°50'0 0.0
2018-Oct-26 05:58N 42°08' W 008°50'0 0.0
2018-Oct-26 05:28N 42°08' W 008°50'0 0.0
2018-Oct-26 05:01N 42°08' W 008°50'0 0.0
2018-Oct-26 04:58N 42°08' W 008°50'0 0.0
2018-Oct-26 04:28N 42°08' W 008°50'0 0.1
2018-Oct-26 04:01N 42°08' W 008°50'0 0.0
2018-Oct-26 03:58N 42°08' W 008°50'0 0.0
2018-Oct-26 03:28N 42°08' W 008°50'0 0.0
2018-Oct-26 03:01N 42°08' W 008°50'0 0.1
2018-Oct-26 02:58N 42°08' W 008°50'0 0.0
2018-Oct-26 02:28N 42°08' W 008°50'0 0.0
2018-Oct-26 02:01N 42°08' W 008°50'0 0.1
2018-Oct-26 01:58N 42°08' W 008°50'0 0.0
2018-Oct-26 01:25N 42°08' W 008°50'0 0.1
2018-Oct-26 01:01N 42°08' W 008°50'0 0.0
2018-Oct-26 00:58N 42°08' W 008°50'0 0.0
2018-Oct-26 00:28N 42°08' W 008°50'0 0.1
2018-Oct-26 00:01N 42°08' W 008°50'0 0.1
2018-Oct-25 23:55N 42°08' W 008°50'0 0.0
2018-Oct-25 23:25N 42°08' W 008°50'0 0.0
2018-Oct-25 23:01N 42°08' W 008°50'0 0.0
2018-Oct-25 22:55N 42°08' W 008°50'0 0.0
2018-Oct-25 22:28N 42°08' W 008°50'0 0.0
2018-Oct-25 22:01N 42°08' W 008°50'0 0.0
2018-Oct-25 21:58N 42°08' W 008°50'0 0.0
2018-Oct-25 21:28N 42°08' W 008°50'0 0.0
2018-Oct-25 21:01N 42°08' W 008°50'0 0.0
2018-Oct-25 20:55N 42°08' W 008°50'0 0.0
2018-Oct-25 20:28N 42°08' W 008°50'0 0.0
2018-Oct-25 20:01N 42°08' W 008°50'0 0.1
2018-Oct-25 19:55N 42°08' W 008°50'0 0.0
2018-Oct-25 19:30N 42°08' W 008°50'1 2.0
2018-Oct-25 19:04N 42°08' W 008°51'0 5.3
2018-Oct-25 19:01N 42°08' W 008°52'3 6.8
2018-Oct-25 18:30N 42°09' W 008°56'3 7.0
2018-Oct-25 18:03N 42°09' W 009°00'0 7.5
2018-Oct-25 18:00N 42°09' W 009°01'3 6.5
2018-Oct-25 17:30N 42°11' W 009°05'3 7.0
2018-Oct-25 17:03N 42°13' W 009°07'1 7.0
2018-Oct-25 16:55N 42°14' W 009°07'3 6.9
2018-Oct-25 16:28N 42°17' W 009°08'4 6.7
2018-Oct-25 15:54N 42°21' W 009°08'11 6.7
2018-Oct-25 14:18N 42°32' W 009°09'  
Track history (hours):
 
Tides and Currents Weather Stations Pressure Air Temp Water Temp Dewpoint Dewpoint Depression Visibility Wind Speed Wind Dir Waves Ship Positions

Wylde Swan

Last reported at 2018-Nov-03 12:42 UTC. Time now 2018-Dec-10 23:47 UTC.
Position N 37°17' W 010°32'.
Warning: this ship's position is 37 days out of date.

Length 45 m; draft 3.4 m.

Type: Sailing vessel. MMSI: 244074000.

Date/timePositionNaut miles runAvg speedWind from/ knotsBaromVisibWave heightAir tempDewpointWater temp
2018-Nov-03 12:42N 37°17' W 010°32'2 8.5
2018-Nov-03 12:30N 37°19' W 010°31'6 7.4
2018-Nov-03 11:44N 37°23' W 010°26'5 7.5
2018-Nov-03 11:06N 37°27' W 010°22'0 7.2
2018-Nov-03 11:03N 37°27' W 010°22'2 7.6
2018-Nov-03 10:45N 37°29' W 010°20'8 7.6
2018-Nov-03 09:41N 37°35' W 010°14'21 7.2
2018-Nov-03 06:45N 37°52' W 009°58'11 6.3
2018-Nov-03 05:04N 38°01' W 009°52'1 6.0
2018-Nov-03 04:50N 38°03' W 009°51'3 6.7
2018-Nov-03 04:20N 38°05' W 009°49'2 6.4
2018-Nov-03 03:59N 38°07' W 009°48'4 7.3
2018-Nov-03 03:26N 38°11' W 009°45'3 6.8
2018-Nov-03 03:03N 38°13' W 009°44'0 7.5
2018-Nov-03 03:00N 38°14' W 009°43'4 7.1
2018-Nov-03 02:30N 38°17' W 009°42'3 6.8
2018-Nov-03 02:03N 38°20' W 009°40'0 7.4
2018-Nov-03 02:00N 38°20' W 009°40'3 6.4
2018-Nov-03 01:30N 38°23' W 009°38'3 6.1
2018-Nov-03 01:03N 38°25' W 009°36'0 6.8
2018-Nov-03 01:00N 38°25' W 009°36'3 6.3
2018-Nov-03 00:30N 38°28' W 009°34'3 6.2
2018-Nov-03 00:03N 38°30' W 009°32'0 6.3
2018-Nov-03 00:00N 38°31' W 009°32'3 6.0
2018-Nov-02 23:30N 38°33' W 009°30'3 6.6
2018-Nov-02 23:03N 38°36' W 009°28'0 6.6
2018-Nov-02 23:00N 38°36' W 009°28'3 5.4
2018-Nov-02 22:30N 38°38' W 009°26'1 2.8
2018-Nov-02 22:03N 38°40' W 009°25'0 2.2
2018-Nov-02 22:00N 38°40' W 009°25'1 2.5
2018-Nov-02 21:30N 38°41' W 009°25'1 1.9
2018-Nov-02 21:03N 38°42' W 009°25'0 0.3
2018-Nov-02 20:57N 38°42' W 009°25'0 0.1
2018-Nov-02 20:30N 38°42' W 009°25'0 0.0
2018-Nov-02 20:03N 38°42' W 009°25'0 0.1
2018-Nov-02 20:00N 38°42' W 009°25'0 0.0
2018-Nov-02 19:30N 38°42' W 009°25'0 0.0
2018-Nov-02 19:03N 38°42' W 009°25'0 0.1
2018-Nov-02 19:00N 38°42' W 009°25'0 0.1
2018-Nov-02 18:30N 38°42' W 009°25'0 0.1
2018-Nov-02 18:03N 38°42' W 009°25'0 0.1
2018-Nov-02 18:00N 38°42' W 009°25'0 0.0
2018-Nov-02 17:27N 38°42' W 009°25'0 0.0
2018-Nov-02 17:03N 38°42' W 009°25'0 0.0
2018-Nov-02 16:57N 38°42' W 009°25'0 0.0
2018-Nov-02 16:30N 38°42' W 009°25'0 0.0
2018-Nov-02 16:03N 38°42' W 009°25'0 0.1
2018-Nov-02 16:00N 38°42' W 009°25'0 0.0
2018-Nov-02 15:30N 38°42' W 009°25'0 0.0
2018-Nov-02 15:03N 38°42' W 009°25'0 0.1
2018-Nov-02 15:00N 38°42' W 009°25'0 0.0
2018-Nov-02 14:03N 38°42' W 009°25'0 0.1
2018-Nov-02 14:00N 38°42' W 009°25'0 0.0
2018-Nov-02 13:30N 38°42' W 009°25'0 0.0
2018-Nov-02 13:03N 38°42' W 009°25'0 0.0
2018-Nov-02 12:57N 38°42' W 009°25'0 0.0
2018-Nov-02 12:30N 38°42' W 009°25'0 0.0
2018-Nov-02 12:03N 38°42' W 009°25'0 0.0
2018-Nov-02 11:57N 38°42' W 009°25'0 0.0
2018-Nov-02 11:18N 38°42' W 009°25'0 0.0
2018-Nov-02 11:03N 38°42' W 009°25'0 0.1
2018-Nov-02 11:00N 38°42' W 009°25'0 0.0
2018-Nov-02 10:30N 38°42' W 009°25'0 0.0
2018-Nov-02 09:57N 38°42' W 009°25'0 0.1
2018-Nov-02 09:30N 38°42' W 009°25'0 0.0
2018-Nov-02 09:03N 38°42' W 009°25'0 0.0
2018-Nov-02 09:00N 38°42' W 009°25'0 0.0
2018-Nov-02 08:30N 38°42' W 009°25'0 0.0
2018-Nov-02 08:03N 38°42' W 009°25'0 0.0
2018-Nov-02 07:51N 38°42' W 009°25'0 0.1
2018-Nov-02 07:30N 38°42' W 009°25'0 0.0
2018-Nov-02 07:03N 38°42' W 009°25'0 0.0
2018-Nov-02 07:00N 38°42' W 009°25'0 0.0
2018-Nov-02 06:30N 38°42' W 009°25'0 0.0
2018-Nov-02 06:03N 38°42' W 009°25'0 0.0
2018-Nov-02 05:57N 38°42' W 009°25'0 0.0
2018-Nov-02 05:27N 38°42' W 009°25'0 0.0
2018-Nov-02 05:03N 38°42' W 009°25'0 0.0
2018-Nov-02 04:54N 38°42' W 009°25'0 0.0
2018-Nov-02 04:30N 38°42' W 009°25'0 0.0
2018-Nov-02 04:03N 38°42' W 009°25'0 0.1
2018-Nov-02 03:57N 38°42' W 009°25'0 0.0
2018-Nov-02 03:30N 38°42' W 009°25'0 0.0
2018-Nov-02 03:03N 38°42' W 009°25'0 0.0
2018-Nov-02 02:57N 38°42' W 009°25'0 0.0
2018-Nov-02 02:24N 38°42' W 009°25'0 0.0
2018-Nov-02 02:03N 38°42' W 009°25'0 0.0
2018-Nov-02 01:57N 38°42' W 009°25'0 0.0
2018-Nov-02 01:30N 38°42' W 009°25'0 0.0
2018-Nov-02 00:51N 38°42' W 009°25'0 0.0
2018-Nov-02 00:33N 38°42' W 009°25'0 0.0
2018-Nov-02 00:15N 38°42' W 009°25'0 0.0
2018-Nov-02 00:03N 38°42' W 009°25'0 0.0
2018-Nov-02 00:00N 38°42' W 009°25'0 0.0
2018-Nov-01 23:30N 38°42' W 009°25'0 0.0
2018-Nov-01 23:03N 38°42' W 009°25'0 0.1
2018-Nov-01 22:57N 38°42' W 009°25'0 0.0
2018-Nov-01 22:30N 38°42' W 009°25'0 0.0
2018-Nov-01 22:03N 38°42' W 009°25'0 0.0
2018-Nov-01 22:00N 38°42' W 009°25'0 0.0
2018-Nov-01 21:30N 38°42' W 009°25'0 0.0
2018-Nov-01 21:00N 38°42' W 009°25'0 0.0
2018-Nov-01 20:27N 38°42' W 009°25'0 0.0
2018-Nov-01 19:57N 38°42' W 009°25'0 0.0
2018-Nov-01 19:24N 38°42' W 009°25'0 0.0
2018-Nov-01 18:57N 38°42' W 009°25'0 0.0
2018-Nov-01 18:24N 38°42' W 009°25'0 0.0
2018-Nov-01 18:03N 38°42' W 009°25'0 0.1
2018-Nov-01 18:00N 38°42' W 009°25'0 0.0
2018-Nov-01 17:30N 38°42' W 009°25'0 0.0
2018-Nov-01 17:00N 38°42' W 009°25'0 0.0
2018-Nov-01 16:27N 38°42' W 009°25'0 0.0
2018-Nov-01 16:03N 38°42' W 009°25'0 0.1
2018-Nov-01 16:00N 38°42' W 009°25'0 0.0
2018-Nov-01 15:27N 38°42' W 009°25'0 0.0
2018-Nov-01 15:00N 38°42' W 009°25'0 0.0
2018-Nov-01 14:27N 38°42' W 009°25'0 0.0
2018-Nov-01 14:00N 38°42' W 009°25'0 0.1
2018-Nov-01 13:30N 38°42' W 009°25'0 0.0
2018-Nov-01 13:03N 38°42' W 009°25'0 0.2
2018-Nov-01 13:00N 38°42' W 009°25'0 0.0
2018-Nov-01 12:30N 38°42' W 009°25'0 0.0
2018-Nov-01 12:03N 38°42' W 009°25'0 0.0
2018-Nov-01 12:00N 38°42' W 009°25'0 0.0
2018-Nov-01 11:30N 38°42' W 009°25'0 0.0
2018-Nov-01 11:04N 38°42' W 009°25'0 0.0
2018-Nov-01 11:01N 38°42' W 009°25'0 0.0
2018-Nov-01 10:31N 38°42' W 009°25'0 0.0
2018-Nov-01 10:04N 38°42' W 009°25'0 0.1
2018-Nov-01 10:00N 38°42' W 009°25'0 0.1
2018-Nov-01 09:30N 38°42' W 009°25'0 0.0
2018-Nov-01 09:03N 38°42' W 009°25'0 0.1
2018-Nov-01 09:01N 38°42' W 009°25'0 0.0
2018-Nov-01 08:31N 38°42' W 009°25'0 0.0
2018-Nov-01 08:03N 38°42' W 009°25'0 0.0
2018-Nov-01 08:01N 38°42' W 009°25'0 0.0
2018-Nov-01 07:30N 38°42' W 009°25'0 0.1
2018-Nov-01 07:03N 38°42' W 009°25'0 1.3
2018-Nov-01 07:01N 38°42' W 009°25'1 1.2
2018-Nov-01 06:30N 38°41' W 009°25'2 5.5
2018-Nov-01 06:04N 38°39' W 009°27'0 7.3
2018-Nov-01 06:01N 38°39' W 009°27'3 6.8
2018-Nov-01 05:30N 38°39' W 009°31'3 6.6
2018-Nov-01 05:04N 38°39' W 009°35'0 6.5
2018-Nov-01 05:01N 38°39' W 009°36'3 6.8
2018-Nov-01 04:30N 38°39' W 009°40'3 6.0
2018-Nov-01 04:03N 38°41' W 009°43'0 7.3
2018-Nov-01 04:01N 38°41' W 009°43'3 6.9
2018-Nov-01 03:30N 38°44' W 009°43'3 6.5
2018-Nov-01 03:04N 38°47' W 009°43'0 6.5
2018-Nov-01 03:00N 38°48' W 009°43'3 6.6
2018-Nov-01 02:31N 38°51' W 009°43'3 6.4
2018-Nov-01 02:03N 38°54' W 009°42'0 6.4
2018-Nov-01 02:01N 38°54' W 009°42'3 6.6
2018-Nov-01 01:30N 38°57' W 009°41'3 6.5
2018-Nov-01 01:03N 39°00' W 009°40'0 6.6
2018-Nov-01 01:01N 39°00' W 009°40'3 6.5
2018-Nov-01 00:30N 39°03' W 009°38'3 6.3
2018-Nov-01 00:04N 39°06' W 009°37'0 6.2
2018-Nov-01 00:01N 39°06' W 009°36'3 6.2
2018-Oct-31 23:31N 39°09' W 009°35'3 6.3
2018-Oct-31 23:03N 39°12' W 009°34'0 6.5
2018-Oct-31 23:00N 39°12' W 009°34'3 6.1
2018-Oct-31 22:30N 39°15' W 009°32'3 6.0
2018-Oct-31 22:03N 39°18' W 009°31'0 5.7
2018-Oct-31 22:01N 39°18' W 009°31'3 5.7
2018-Oct-31 21:31N 39°20' W 009°30'2 5.3
2018-Oct-31 21:03N 39°23' W 009°28'0 5.7
2018-Oct-31 21:00N 39°23' W 009°28'2 5.0
2018-Oct-31 20:31N 39°25' W 009°27'3 5.9
2018-Oct-31 20:03N 39°28' W 009°26'0 5.8
2018-Oct-31 20:00N 39°28' W 009°26'3 5.3
2018-Oct-31 19:27N 39°31' W 009°25'150 6.0
2018-Oct-30 18:20N 42°00' W 009°02'2 6.0
2018-Oct-30 18:04N 42°02' W 009°02'0 5.9
2018-Oct-30 18:01N 42°02' W 009°02'3 6.1
2018-Oct-30 17:30N 42°05' W 009°02'3 6.0
2018-Oct-30 17:04N 42°08' W 009°02'0 6.1
2018-Oct-30 17:01N 42°08' W 009°02'3 6.2
2018-Oct-30 16:30N 42°11' W 009°03'3 6.3
2018-Oct-30 16:03N 42°14' W 009°03'0 6.0
2018-Oct-30 16:00N 42°14' W 009°03'2 4.0
2018-Oct-30 15:31N 42°16' W 009°02'2 5.2
2018-Oct-30 15:03N 42°17' W 008°59'0 5.2
2018-Oct-30 15:00N 42°18' W 008°59'4 4.7
2018-Oct-30 14:03N 42°20' W 008°54'4 5.1
2018-Oct-30 13:16N 42°22' W 008°49'3 1.6
2018-Oct-30 11:32N 42°22' W 008°46'0 3.9
2018-Oct-30 11:30N 42°22' W 008°46'2 3.2
2018-Oct-30 10:51N 42°24' W 008°48'0 0.0
2018-Oct-30 04:58N 42°24' W 008°48'0 0.0
2018-Oct-28 02:34N 42°24' W 008°48'5 0.1
2018-Oct-26 16:08N 42°20' W 008°52'0 5.8
2018-Oct-26 16:03N 42°20' W 008°53'0 5.6
2018-Oct-26 16:00N 42°20' W 008°53'3 6.8
2018-Oct-26 15:30N 42°17' W 008°56'3 7.0
2018-Oct-26 15:03N 42°14' W 008°56'0 7.1
2018-Oct-26 15:00N 42°14' W 008°56'6 6.4
2018-Oct-26 14:04N 42°08' W 008°53'0 6.6
2018-Oct-26 14:00N 42°08' W 008°52'2 3.5
2018-Oct-26 13:30N 42°08' W 008°50'0 0.0
2018-Oct-26 13:01N 42°08' W 008°50'0 0.0
2018-Oct-26 12:58N 42°08' W 008°50'0 0.0
2018-Oct-26 12:28N 42°08' W 008°50'0 0.1
2018-Oct-26 12:01N 42°08' W 008°50'0 0.1
2018-Oct-26 11:58N 42°08' W 008°50'0 0.0
2018-Oct-26 11:28N 42°08' W 008°50'0 0.0
2018-Oct-26 11:01N 42°08' W 008°50'0 0.1
2018-Oct-26 10:55N 42°08' W 008°50'0 0.0
2018-Oct-26 10:28N 42°08' W 008°50'0 0.1
2018-Oct-26 10:01N 42°08' W 008°50'0 0.0
2018-Oct-26 09:58N 42°08' W 008°50'0 0.0
2018-Oct-26 09:28N 42°08' W 008°50'0 0.1
2018-Oct-26 09:01N 42°08' W 008°50'0 0.0
2018-Oct-26 08:58N 42°08' W 008°50'0 0.0
2018-Oct-26 08:28N 42°08' W 008°50'0 0.0
2018-Oct-26 08:01N 42°08' W 008°50'0 0.0
2018-Oct-26 07:58N 42°08' W 008°50'0 0.0
2018-Oct-26 07:28N 42°08' W 008°50'0 0.0
2018-Oct-26 07:01N 42°08' W 008°50'0 0.0
2018-Oct-26 06:58N 42°08' W 008°50'0 0.0
2018-Oct-26 06:28N 42°08' W 008°50'0 0.0
2018-Oct-26 06:01N 42°08' W 008°50'0 0.0
2018-Oct-26 05:58N 42°08' W 008°50'0 0.0
2018-Oct-26 05:28N 42°08' W 008°50'0 0.0
2018-Oct-26 05:01N 42°08' W 008°50'0 0.0
2018-Oct-26 04:58N 42°08' W 008°50'0 0.0
2018-Oct-26 04:28N 42°08' W 008°50'0 0.1
2018-Oct-26 04:01N 42°08' W 008°50'0 0.0
2018-Oct-26 03:58N 42°08' W 008°50'0 0.0
2018-Oct-26 03:28N 42°08' W 008°50'0 0.0
2018-Oct-26 03:01N 42°08' W 008°50'0 0.1
2018-Oct-26 02:58N 42°08' W 008°50'0 0.0
2018-Oct-26 02:28N 42°08' W 008°50'0 0.0
2018-Oct-26 02:01N 42°08' W 008°50'0 0.1
2018-Oct-26 01:58N 42°08' W 008°50'0 0.0
2018-Oct-26 01:25N 42°08' W 008°50'0 0.1
2018-Oct-26 01:01N 42°08' W 008°50'0 0.0
2018-Oct-26 00:58N 42°08' W 008°50'0 0.0
2018-Oct-26 00:28N 42°08' W 008°50'0 0.1
2018-Oct-26 00:01N 42°08' W 008°50'0 0.1
2018-Oct-25 23:55N 42°08' W 008°50'0 0.0
2018-Oct-25 23:25N 42°08' W 008°50'0 0.0
2018-Oct-25 23:01N 42°08' W 008°50'0 0.0
2018-Oct-25 22:55N 42°08' W 008°50'0 0.0
2018-Oct-25 22:28N 42°08' W 008°50'0 0.0
2018-Oct-25 22:01N 42°08' W 008°50'0 0.0
2018-Oct-25 21:58N 42°08' W 008°50'0 0.0
2018-Oct-25 21:28N 42°08' W 008°50'0 0.0
2018-Oct-25 21:01N 42°08' W 008°50'0 0.0
2018-Oct-25 20:55N 42°08' W 008°50'0 0.0
2018-Oct-25 20:28N 42°08' W 008°50'0 0.0
2018-Oct-25 20:01N 42°08' W 008°50'0 0.1
2018-Oct-25 19:55N 42°08' W 008°50'0 0.0
2018-Oct-25 19:30N 42°08' W 008°50'1 2.0
2018-Oct-25 19:04N 42°08' W 008°51'0 5.3
2018-Oct-25 19:01N 42°08' W 008°52'3 6.8
2018-Oct-25 18:30N 42°09' W 008°56'3 7.0
2018-Oct-25 18:03N 42°09' W 009°00'0 7.5
2018-Oct-25 18:00N 42°09' W 009°01'3 6.5
2018-Oct-25 17:30N 42°11' W 009°05'3 7.0
2018-Oct-25 17:03N 42°13' W 009°07'1 7.0
2018-Oct-25 16:55N 42°14' W 009°07'3 6.9
2018-Oct-25 16:28N 42°17' W 009°08'4 6.7
2018-Oct-25 15:54N 42°21' W 009°08'11 6.7
2018-Oct-25 14:18N 42°32' W 009°09'  

Dump ship's entire track history